KVGT/VGT METAR and TAF weather

Enter ICAO airport designator
Station Type Date Time Source
KVGT METAR 2022/01/26 14:53 UTC NOAA

KVGT 261453Z 27005KT 10SM CLR 03/M09 A3028 RMK AO2 SLP276 T00331089 53012


Station Type Date Time Source
KVGT Decoded METAR 2022/01/26 14:53 UTC NOAA

NORTH LAS VEGAS, NV, United States (KVGT) 36-12N 115-11W
Jan 26, 2022 - 09:53 AM EST / 2022.01.26 1453 UTC
Wind: from the W (270 degrees) at 6 MPH (5 KT):0
Visibility: 10 mile(s):0
Sky conditions: clear
Temperature: 37.9 F (3.3 C)
Dew Point: 16.0 F (-8.9 C)
Relative Humidity: 40%
Pressure (altimeter): 30.28 in. Hg (1025 hPa)
Pressure tendency: 0.04 inches (1.2 hPa) higher than three hours ago
ob: KVGT 261453Z 27005KT 10SM CLR 03/M09 A3028 RMK AO2 SLP276 T00331089 53012
cycle: 15

Station Type Date Time Source
KVGT TAF 2022/01/26 12:22 UTC NOAA

TAF KVGT 261120Z 2612/2712 34010KT P6SM SKC
FM261800 10005KT P6SM SKC
FM270400 31008KT P6SM SKC

Example: see airport list